This is the latest recevied weather packets stored in our database for station/object EA1PVC-10. If no packets are shown the sender has not sent any weather packets the latest 10 day(s).
| Time | Temp. | Humidity | Pressure | Rain* | Wind** | Luminosity | Snow |
|---|---|---|---|---|---|---|---|
| 1777481573 | 16.11° C | 70% | 915.2 hPa | - | - | - | - |
| 1777480673 | 18.89° C | 59% | 915.2 hPa | - | - | - | - |
| 1777479773 | 17.22° C | 72% | 915.3 hPa | - | - | - | - |
| 1777478873 | 19.44° C | 56% | 915.2 hPa | - | - | - | - |
| 1777477973 | 19.44° C | 55% | 915 hPa | - | - | - | - |
| 1777477073 | 22.22° C | 50% | 916.3 hPa | - | - | - | - |
| 1777476173 | 18.89° C | 55% | 915.1 hPa | - | - | - | - |
| 1777475273 | 21.11° C | 50% | 915 hPa | - | - | - | - |
| 1777474373 | 26.67° C | 39% | 915.3 hPa | - | - | - | - |
| 1777473473 | 17.78° C | 63% | 915.4 hPa | - | - | - | - |
| 1777472573 | 12.78° C | 58% | 907.9 hPa | - | - | - | - |
| 1777471661 | 17.22° C | 61% | 915.2 hPa | - | - | - | - |
| 1777470761 | 17.78° C | 64% | 915 hPa | - | - | - | - |
| 1777469861 | 17.22° C | 69% | 914.8 hPa | - | - | - | - |
| 1777468961 | 16.67° C | 71% | 914.8 hPa | - | - | - | - |
| 1777468061 | 17.78° C | 66% | 914.8 hPa | - | - | - | - |
| 1777467161 | 18.33° C | 65% | 915.9 hPa | - | - | - | - |
| 1777466261 | 17.22° C | 68% | 914.7 hPa | - | - | - | - |
| 1777465361 | 18.33° C | 67% | 914.6 hPa | - | - | - | - |
| 1777464461 | 17.78° C | 73% | 914.8 hPa | - | - | - | - |
| 1777463561 | 7.22° C | 78% | 902.3 hPa | - | - | - | - |
| 1777462660 | 15.56° C | 78% | 915.1 hPa | - | - | - | - |
| 1777461761 | 11.67° C | 70% | 908.8 hPa | - | - | - | - |
| 1777460849 | 16.11° C | 74% | 914.9 hPa | - | - | - | - |
| 1777459949 | 13.89° C | 79% | 913.8 hPa | - | - | - | - |
* Rain since midnight (hover to see other rain measurements)
** Current wind speed in m/s (hover to see current wind gust speed)